createdAt,value
2023-03-29T00:01:10.173Z,68.50
2023-03-29T00:03:39.646Z,68.85
2023-03-29T00:06:08.545Z,69.62
2023-03-29T00:08:38.003Z,70.09
2023-03-29T00:11:07.682Z,69.95
2023-03-29T00:13:36.555Z,69.43
2023-03-29T00:16:05.130Z,69.15
2023-03-29T00:18:33.598Z,68.95
2023-03-29T00:21:02.732Z,68.82
2023-03-29T00:23:31.374Z,68.21
2023-03-29T00:26:00.259Z,68.53
2023-03-29T00:28:28.846Z,69.15
2023-03-29T00:31:16.145Z,68.40
2023-03-29T00:33:45.265Z,69.42
2023-03-29T00:36:14.753Z,69.75
2023-03-29T00:38:43.382Z,68.44
2023-03-29T00:44:52.832Z,68.38
2023-03-29T00:47:27.425Z,69.04
2023-03-29T00:50:00.279Z,68.16
2023-03-29T00:52:30.362Z,68.00
2023-03-29T00:55:01.595Z,67.91
2023-03-29T00:57:31.604Z,68.50
2023-03-29T01:00:00.810Z,69.03
2023-03-29T01:02:35.082Z,69.00
2023-03-29T01:05:11.797Z,68.09
2023-03-29T01:08:02.669Z,68.39
2023-03-29T01:11:03.011Z,68.79
2023-03-29T01:13:48.296Z,68.75
2023-03-29T01:16:20.312Z,68.29
2023-03-29T01:18:49.303Z,68.96
2023-03-29T01:21:34.241Z,68.47
2023-03-29T01:24:19.221Z,67.92
2023-03-29T01:27:15.755Z,68.45
2023-03-29T01:29:50.773Z,67.78
2023-03-29T01:32:48.060Z,67.95
2023-03-29T01:35:48.498Z,67.99
2023-03-29T01:38:18.720Z,68.15
2023-03-29T01:40:47.312Z,68.75
2023-03-29T01:43:19.845Z,68.04
2023-03-29T01:46:04.603Z,68.22
2023-03-29T01:48:51.901Z,68.15
2023-03-29T01:51:44.785Z,68.04
2023-03-29T01:54:30.027Z,68.11
2023-03-29T01:56:59.800Z,69.13
2023-03-29T01:59:33.225Z,68.46
2023-03-29T02:02:06.553Z,68.64
2023-03-29T02:04:39.885Z,68.27
2023-03-29T02:07:11.410Z,68.46
2023-03-29T02:09:42.077Z,67.81
2023-03-29T02:12:14.017Z,67.96
2023-03-29T02:14:42.713Z,68.13
2023-03-29T02:17:26.942Z,68.00
2023-03-29T02:20:14.478Z,68.18
2023-03-29T02:22:53.262Z,68.44
2023-03-29T02:25:22.562Z,68.90
2023-03-29T02:27:51.722Z,68.31
2023-03-29T02:30:21.905Z,67.16
2023-03-29T02:33:14.037Z,67.26
2023-03-29T02:36:11.570Z,67.88
2023-03-29T02:38:40.472Z,68.29
2023-03-29T02:41:10.778Z,67.41
2023-03-29T02:43:40.520Z,66.85
2023-03-29T02:46:09.480Z,66.90
2023-03-29T02:48:39.016Z,67.00
2023-03-29T02:51:18.011Z,66.87
2023-03-29T02:54:13.933Z,66.99
2023-03-29T02:57:01.822Z,67.46
2023-03-29T02:59:31.017Z,67.92
2023-03-29T03:01:59.560Z,68.10
2023-03-29T03:04:29.480Z,66.57
2023-03-29T03:06:58.075Z,66.88
2023-03-29T03:09:26.852Z,66.89
2023-03-29T03:11:55.481Z,66.88
2023-03-29T03:14:23.967Z,67.10
2023-03-29T03:16:52.878Z,66.73
2023-03-29T03:19:21.442Z,66.98
2023-03-29T03:21:51.033Z,66.79
2023-03-29T03:24:19.529Z,66.35
2023-03-29T03:26:48.012Z,66.87
2023-03-29T03:29:19.327Z,66.94
2023-03-29T03:31:53.923Z,67.27
2023-03-29T03:34:22.792Z,67.84
2023-03-29T03:36:51.529Z,67.44
2023-03-29T03:39:20.045Z,66.96
2023-03-29T03:41:48.601Z,67.50
2023-03-29T03:44:17.293Z,67.28
2023-03-29T03:46:45.879Z,67.94
2023-03-29T03:49:14.394Z,67.61
2023-03-29T03:51:45.446Z,67.36
2023-03-29T03:54:14.058Z,67.35
2023-03-29T03:56:43.530Z,67.50
2023-03-29T03:59:12.089Z,67.05
2023-03-29T04:01:43.476Z,67.24
2023-03-29T04:04:12.945Z,67.25
2023-03-29T04:06:43.797Z,67.14
2023-03-29T04:09:12.969Z,67.53
2023-03-29T04:11:41.430Z,67.30
2023-03-29T04:14:10.364Z,67.00
2023-03-29T04:16:38.845Z,66.67
2023-03-29T04:19:07.426Z,67.23
2023-03-29T04:21:35.905Z,67.54
2023-03-29T04:24:04.534Z,68.47
2023-03-29T04:26:33.106Z,69.35
2023-03-29T04:29:01.630Z,70.04
2023-03-29T04:31:30.141Z,70.51
2023-03-29T04:34:00.415Z,70.92
2023-03-29T04:36:29.123Z,71.08
2023-03-29T04:38:58.971Z,71.76
2023-03-29T04:41:27.440Z,72.07
2023-03-29T04:43:56.181Z,71.68
2023-03-29T04:46:26.572Z,72.21
2023-03-29T04:48:55.466Z,72.62
2023-03-29T04:51:24.485Z,72.50
2023-03-29T04:53:53.228Z,72.70
2023-03-29T04:56:23.115Z,72.49
2023-03-29T04:58:51.834Z,72.49
2023-03-29T05:01:23.643Z,72.82
2023-03-29T05:03:52.632Z,73.33
2023-03-29T05:06:23.887Z,72.89
2023-03-29T05:08:55.290Z,73.40
2023-03-29T05:11:25.421Z,73.39
2023-03-29T05:13:57.357Z,72.60
2023-03-29T05:16:26.445Z,72.31
2023-03-29T05:18:55.382Z,72.33
2023-03-29T05:21:24.061Z,72.36
2023-03-29T05:23:53.335Z,72.00
2023-03-29T05:26:25.591Z,71.90
2023-03-29T05:28:54.116Z,71.93
2023-03-29T05:31:22.894Z,71.95
2023-03-29T05:33:52.712Z,72.15
2023-03-29T05:36:21.462Z,71.79
2023-03-29T05:38:50.048Z,72.07
2023-03-29T05:41:19.081Z,71.53
2023-03-29T05:43:48.344Z,71.56
2023-03-29T05:46:16.827Z,71.37
2023-03-29T05:48:45.449Z,70.68
2023-03-29T05:51:14.031Z,70.77
2023-03-29T05:53:42.536Z,70.66
2023-03-29T05:56:11.657Z,70.15
2023-03-29T05:58:40.420Z,71.58
2023-03-29T06:01:15.408Z,70.86
2023-03-29T06:03:44.105Z,70.88
2023-03-29T06:06:15.198Z,71.02
2023-03-29T06:08:43.917Z,71.26
2023-03-29T06:11:14.416Z,71.48
2023-03-29T06:13:42.773Z,71.97
2023-03-29T06:16:13.544Z,72.01
2023-03-29T06:18:42.384Z,71.72
2023-03-29T06:21:10.887Z,72.06
2023-03-29T06:23:39.618Z,72.67
2023-03-29T06:26:08.156Z,73.08
2023-03-29T06:28:36.623Z,72.78
2023-03-29T06:31:06.062Z,72.77
2023-03-29T06:33:37.203Z,72.72
2023-03-29T06:36:05.930Z,72.75
2023-03-29T06:38:35.361Z,73.13
2023-03-29T06:41:08.977Z,73.28
2023-03-29T06:43:37.724Z,74.10
2023-03-29T06:46:08.831Z,73.34
2023-03-29T06:48:37.341Z,73.14
2023-03-29T06:51:07.634Z,73.07
2023-03-29T06:53:36.769Z,73.73
2023-03-29T06:56:09.504Z,74.01
2023-03-29T06:58:38.339Z,73.54
2023-03-29T07:01:07.225Z,73.75
2023-03-29T07:03:36.382Z,73.57
2023-03-29T07:06:10.118Z,74.01
2023-03-29T07:08:43.736Z,73.75
2023-03-29T07:11:18.737Z,74.11
2023-03-29T07:13:49.272Z,74.18
2023-03-29T07:16:17.580Z,74.40
2023-03-29T07:18:46.463Z,73.82
2023-03-29T07:21:15.177Z,73.81
2023-03-29T07:23:44.115Z,73.74
2023-03-29T07:26:12.288Z,74.20
2023-03-29T07:28:41.000Z,74.20
2023-03-29T07:31:13.464Z,74.22
2023-03-29T07:33:42.819Z,74.74
2023-03-29T07:36:11.713Z,74.41
2023-03-29T07:38:39.868Z,74.24
2023-03-29T07:41:09.116Z,73.66
2023-03-29T07:43:37.277Z,73.73
2023-03-29T07:46:07.265Z,73.54
2023-03-29T07:48:37.241Z,73.96
2023-03-29T07:51:06.332Z,73.92
2023-03-29T07:53:34.943Z,74.07
2023-03-29T07:56:03.111Z,73.71
2023-03-29T07:58:31.575Z,74.04
2023-03-29T08:01:01.462Z,74.06
2023-03-29T08:03:30.162Z,74.12
2023-03-29T08:05:58.696Z,74.12
2023-03-29T08:08:27.187Z,73.94
2023-03-29T08:10:56.349Z,73.70
2023-03-29T08:13:24.814Z,73.60
2023-03-29T08:15:53.330Z,73.21
2023-03-29T08:18:22.131Z,72.61
2023-03-29T08:20:52.720Z,72.87
2023-03-29T08:23:21.318Z,72.54
2023-03-29T08:25:49.773Z,72.54
2023-03-29T08:28:18.028Z,72.14
2023-03-29T08:30:46.598Z,72.26
2023-03-29T08:33:15.169Z,72.14
2023-03-29T08:35:43.404Z,71.93
2023-03-29T08:38:12.614Z,71.83
2023-03-29T08:40:41.451Z,71.71
2023-03-29T08:43:24.019Z,71.69
2023-03-29T08:45:52.506Z,70.63
2023-03-29T08:48:29.661Z,70.89
2023-03-29T08:51:09.830Z,69.63
2023-03-29T08:53:56.564Z,69.58
2023-03-29T08:56:28.557Z,69.45
2023-03-29T08:58:58.905Z,69.29
2023-03-29T09:01:35.031Z,69.04
2023-03-29T09:04:30.628Z,68.49
2023-03-29T09:06:59.483Z,68.26
2023-03-29T09:09:36.169Z,68.00
2023-03-29T09:12:27.822Z,68.15
2023-03-29T09:15:42.228Z,68.80
2023-03-29T09:18:20.334Z,68.91
2023-03-29T09:21:22.605Z,68.84
2023-03-29T09:24:10.168Z,68.38
2023-03-29T09:27:10.144Z,68.62
2023-03-29T09:30:14.498Z,68.45
2023-03-29T09:32:53.297Z,68.31
2023-03-29T09:35:34.694Z,68.28
2023-03-29T09:38:05.615Z,68.07
2023-03-29T09:40:57.830Z,67.85
2023-03-29T09:43:39.520Z,68.10
2023-03-29T09:46:32.235Z,67.44
2023-03-29T09:49:01.792Z,67.83
2023-03-29T09:51:32.315Z,67.46
2023-03-29T09:54:01.136Z,67.12
2023-03-29T09:56:30.088Z,67.24
2023-03-29T09:58:58.593Z,67.31
2023-03-29T10:01:38.885Z,66.96
2023-03-29T10:04:11.696Z,66.20
2023-03-29T10:06:47.517Z,66.12
2023-03-29T10:09:24.822Z,64.84
2023-03-29T10:12:02.355Z,64.14
2023-03-29T10:14:46.494Z,63.90
2023-03-29T10:17:25.477Z,63.85
2023-03-29T10:20:04.535Z,63.05
2023-03-29T10:22:40.561Z,61.83
2023-03-29T10:25:18.282Z,62.05
2023-03-29T10:27:48.862Z,62.02
2023-03-29T10:30:24.537Z,61.88
2023-03-29T10:33:00.539Z,62.18
2023-03-29T10:35:41.655Z,61.71
2023-03-29T10:38:23.792Z,60.92
2023-03-29T10:40:54.012Z,61.01
2023-03-29T10:43:37.203Z,59.49
2023-03-29T10:46:31.481Z,59.23
2023-03-29T10:49:06.163Z,58.90
2023-03-29T10:51:34.692Z,59.08
2023-03-29T10:54:05.406Z,58.03
2023-03-29T10:56:41.699Z,57.94
2023-03-29T10:59:58.579Z,58.24
2023-03-29T11:02:45.332Z,58.26
2023-03-29T11:05:35.315Z,58.31
2023-03-29T11:08:33.787Z,58.33
2023-03-29T11:11:20.464Z,58.35
2023-03-29T11:14:31.327Z,58.87
2023-03-29T11:17:22.836Z,58.59
2023-03-29T11:20:26.364Z,58.15
2023-03-29T11:23:34.987Z,57.97
2023-03-29T11:26:14.588Z,58.90
2023-03-29T11:29:11.032Z,58.66
2023-03-29T11:32:01.040Z,59.18
2023-03-29T11:34:59.572Z,59.01
2023-03-29T11:38:15.142Z,59.43
2023-03-29T11:40:52.400Z,57.87
2023-03-29T11:43:26.653Z,56.81
2023-03-29T11:46:05.200Z,57.52
2023-03-29T11:48:41.331Z,57.88
2023-03-29T11:51:23.540Z,57.03
2023-03-29T11:54:09.378Z,56.22
2023-03-29T11:57:02.097Z,57.44
2023-03-29T11:59:36.621Z,55.42
2023-03-29T12:03:00.925Z,56.47
2023-03-29T12:06:05.614Z,57.04
2023-03-29T12:08:40.823Z,55.00
2023-03-29T12:11:31.451Z,56.44
2023-03-29T12:14:28.209Z,57.58
2023-03-29T12:17:04.329Z,57.38
2023-03-29T12:20:01.371Z,58.42
2023-03-29T12:22:29.983Z,59.19
2023-03-29T12:24:58.988Z,59.09
2023-03-29T12:27:40.595Z,58.48
2023-03-29T12:30:42.093Z,59.16
2023-03-29T12:33:34.518Z,60.02
2023-03-29T12:36:19.079Z,60.09
2023-03-29T12:38:48.249Z,59.27
2023-03-29T12:41:24.999Z,60.12
2023-03-29T12:43:53.554Z,60.31
2023-03-29T12:46:27.089Z,60.58
2023-03-29T12:48:59.356Z,60.97
2023-03-29T12:51:36.071Z,61.40
2023-03-29T12:54:11.672Z,60.72
2023-03-29T12:57:02.961Z,61.40
2023-03-29T12:59:45.147Z,59.20
2023-03-29T13:02:17.883Z,59.15
2023-03-29T13:04:56.102Z,58.83
2023-03-29T13:07:26.463Z,58.11
2023-03-29T13:10:02.987Z,56.19
2023-03-29T13:12:42.652Z,56.37
2023-03-29T13:15:17.051Z,56.53
2023-03-29T13:17:57.500Z,56.63
2023-03-29T13:20:55.980Z,56.59
2023-03-29T13:23:42.029Z,56.93
2023-03-29T13:27:16.593Z,55.93
2023-03-29T13:30:04.509Z,55.57
2023-03-29T13:33:10.761Z,55.86
2023-03-29T13:36:07.128Z,56.13
2023-03-29T13:38:48.771Z,56.45
2023-03-29T13:41:39.305Z,56.76
2023-03-29T13:44:46.267Z,56.99
2023-03-29T13:47:39.056Z,56.36
2023-03-29T13:50:19.084Z,57.30
2023-03-29T13:53:07.673Z,57.57
2023-03-29T13:55:49.673Z,57.67
2023-03-29T13:58:46.549Z,57.25
2023-03-29T14:01:45.467Z,57.69
2023-03-29T14:04:25.028Z,57.40
2023-03-29T14:06:56.834Z,57.10
2023-03-29T14:09:33.635Z,57.35
2023-03-29T14:12:02.917Z,55.74
2023-03-29T14:14:32.915Z,56.52
2023-03-29T14:17:02.757Z,56.96
2023-03-29T14:19:38.089Z,56.69
2023-03-29T14:22:15.684Z,56.29
2023-03-29T14:24:58.383Z,56.41
2023-03-29T14:27:27.222Z,56.64
2023-03-29T14:29:55.905Z,56.99
2023-03-29T14:32:31.904Z,57.10
2023-03-29T14:35:02.733Z,56.81
2023-03-29T14:37:31.647Z,56.88
2023-03-29T14:40:00.702Z,57.07
2023-03-29T14:42:30.479Z,56.99
2023-03-29T14:45:04.809Z,56.76
2023-03-29T14:47:34.750Z,57.74
2023-03-29T14:50:04.012Z,57.48
2023-03-29T14:52:33.514Z,57.39
2023-03-29T14:55:04.201Z,57.22
2023-03-29T14:57:38.041Z,57.98
2023-03-29T15:00:26.583Z,58.52
2023-03-29T15:03:03.630Z,59.11
2023-03-29T15:06:04.407Z,59.00
2023-03-29T15:08:38.973Z,58.88
2023-03-29T15:11:34.062Z,58.97
2023-03-29T15:14:17.973Z,59.59
2023-03-29T15:16:48.303Z,59.33
2023-03-29T15:19:21.709Z,59.83
2023-03-29T15:21:53.085Z,59.52
2023-03-29T15:24:33.993Z,59.14
2023-03-29T15:27:16.042Z,59.23
2023-03-29T15:29:47.427Z,59.67
2023-03-29T15:32:34.109Z,60.34
2023-03-29T15:35:07.934Z,60.42
2023-03-29T15:37:36.745Z,60.56
2023-03-29T15:40:09.666Z,60.75
2023-03-29T15:42:38.381Z,60.77
2023-03-29T15:45:07.440Z,60.50
2023-03-29T15:47:35.645Z,60.65
2023-03-29T15:50:04.214Z,61.18
2023-03-29T15:52:32.929Z,61.10
2023-03-29T15:55:01.538Z,61.50
2023-03-29T15:57:30.447Z,61.52
2023-03-29T15:59:59.533Z,62.52
2023-03-29T16:02:28.074Z,62.91
2023-03-29T16:04:56.624Z,63.79
2023-03-29T16:07:25.384Z,64.53
2023-03-29T16:09:53.852Z,65.13
2023-03-29T16:12:23.013Z,65.71
2023-03-29T16:14:51.529Z,67.39
2023-03-29T16:17:20.026Z,68.88
2023-03-29T16:19:48.211Z,70.54
2023-03-29T16:22:16.827Z,72.68
2023-03-29T16:24:44.897Z,74.18
2023-03-29T16:27:13.829Z,74.47
2023-03-29T16:29:42.293Z,75.30
2023-03-29T16:32:11.783Z,75.53
2023-03-29T16:34:41.502Z,76.14
2023-03-29T16:37:10.124Z,76.25
2023-03-29T16:39:38.685Z,76.78
2023-03-29T16:42:07.200Z,77.40
2023-03-29T16:44:35.756Z,77.61
2023-03-29T16:47:04.386Z,77.67
2023-03-29T16:49:32.914Z,77.47
2023-03-29T16:52:01.437Z,77.88
2023-03-29T16:54:31.755Z,78.26
2023-03-29T16:57:00.360Z,78.19
2023-03-29T16:59:28.871Z,78.49
2023-03-29T17:01:57.459Z,78.56
2023-03-29T17:04:25.642Z,78.57
2023-03-29T17:06:54.254Z,79.03
2023-03-29T17:09:22.556Z,79.06
2023-03-29T17:11:51.250Z,79.49
2023-03-29T17:14:19.762Z,79.55
2023-03-29T17:16:48.345Z,79.47
2023-03-29T17:19:16.522Z,79.24
2023-03-29T17:21:45.286Z,79.32
2023-03-29T17:24:13.780Z,79.44
2023-03-29T17:26:44.549Z,79.86
2023-03-29T17:29:13.993Z,80.10
2023-03-29T17:31:47.652Z,80.41
2023-03-29T17:34:17.557Z,80.31
2023-03-29T17:36:47.271Z,80.49
2023-03-29T17:39:18.852Z,80.91
2023-03-29T17:41:48.654Z,80.90
2023-03-29T17:44:17.080Z,81.29
2023-03-29T17:46:45.812Z,81.64
2023-03-29T17:49:15.876Z,82.31
2023-03-29T17:51:44.340Z,82.60
2023-03-29T17:54:12.814Z,83.00
2023-03-29T17:56:41.446Z,83.17
2023-03-29T17:59:11.213Z,83.35
2023-03-29T18:01:39.664Z,83.59
2023-03-29T18:04:08.496Z,83.62
2023-03-29T18:06:37.215Z,83.43
2023-03-29T18:09:06.230Z,83.63
2023-03-29T18:11:36.389Z,83.66
2023-03-29T18:14:05.356Z,83.91
2023-03-29T18:16:34.034Z,83.54
2023-03-29T18:19:02.270Z,83.57
2023-03-29T18:21:30.920Z,83.69
2023-03-29T18:23:59.403Z,83.27
2023-03-29T18:26:29.010Z,83.25
2023-03-29T18:28:57.199Z,83.10
2023-03-29T18:31:26.064Z,82.71
2023-03-29T18:33:54.753Z,82.38
2023-03-29T18:36:25.305Z,81.94
2023-03-29T18:38:55.803Z,81.75
2023-03-29T18:41:25.000Z,81.51
2023-03-29T18:43:57.214Z,81.49
2023-03-29T18:46:25.945Z,80.94
2023-03-29T18:48:54.520Z,80.82
2023-03-29T18:51:23.437Z,80.93
2023-03-29T18:53:52.040Z,81.10
2023-03-29T18:56:20.586Z,80.63
2023-03-29T18:58:49.281Z,80.58
2023-03-29T19:01:23.628Z,80.43
2023-03-29T19:03:52.439Z,79.87
2023-03-29T19:06:21.009Z,79.97
2023-03-29T19:08:49.617Z,79.79
2023-03-29T19:11:18.098Z,79.38
2023-03-29T19:13:50.230Z,79.29
2023-03-29T19:16:19.212Z,79.16
2023-03-29T19:18:47.896Z,79.29
2023-03-29T19:21:16.450Z,79.09
2023-03-29T19:23:44.988Z,78.98
2023-03-29T19:26:15.362Z,78.79
2023-03-29T19:28:44.072Z,78.54
2023-03-29T19:31:12.714Z,78.20
2023-03-29T19:33:41.612Z,78.14
2023-03-29T19:36:10.194Z,78.13
2023-03-29T19:38:38.796Z,77.74
2023-03-29T19:41:09.041Z,77.31
2023-03-29T19:43:37.575Z,77.42
2023-03-29T19:46:11.694Z,77.51
2023-03-29T19:48:41.460Z,77.53
2023-03-29T19:51:10.029Z,77.74
2023-03-29T19:53:39.165Z,77.98
2023-03-29T19:56:10.993Z,77.86
2023-03-29T19:58:39.703Z,77.34
2023-03-29T20:01:08.200Z,76.80
2023-03-29T20:03:36.799Z,76.67
2023-03-29T20:06:05.861Z,76.55
2023-03-29T20:08:36.351Z,76.68
2023-03-29T20:11:06.634Z,76.98
2023-03-29T20:13:38.905Z,77.08
2023-03-29T20:16:13.773Z,76.96
2023-03-29T20:18:44.589Z,76.91
2023-03-29T20:21:18.762Z,76.94
2023-03-29T20:23:47.389Z,76.95
2023-03-29T20:26:15.953Z,76.76
2023-03-29T20:28:44.423Z,77.15
2023-03-29T20:31:13.173Z,77.45
2023-03-29T20:33:44.397Z,77.73
2023-03-29T20:36:13.609Z,78.05
2023-03-29T20:38:42.245Z,78.39
2023-03-29T20:41:10.958Z,78.44
2023-03-29T20:43:41.217Z,78.17
2023-03-29T20:46:14.771Z,77.92
2023-03-29T20:48:46.159Z,77.93
2023-03-29T20:51:15.232Z,77.75
2023-03-29T20:53:43.663Z,78.02
2023-03-29T20:56:13.142Z,78.58
2023-03-29T20:58:44.016Z,78.62
2023-03-29T21:01:14.289Z,78.98
2023-03-29T21:03:43.486Z,78.86
2023-03-29T21:06:14.111Z,78.84
2023-03-29T21:08:43.560Z,79.33
2023-03-29T21:11:14.183Z,79.39
2023-03-29T21:13:43.452Z,79.49
2023-03-29T21:16:13.065Z,79.13
2023-03-29T21:18:43.385Z,79.15
2023-03-29T21:21:14.684Z,79.23
2023-03-29T21:23:42.733Z,79.45
2023-03-29T21:26:11.791Z,79.50
2023-03-29T21:28:41.204Z,79.83
2023-03-29T21:31:10.237Z,79.13
2023-03-29T21:33:38.897Z,79.24
2023-03-29T21:36:08.288Z,79.49
2023-03-29T21:38:36.835Z,79.81
2023-03-29T21:41:06.857Z,79.68
2023-03-29T21:43:35.358Z,79.32
2023-03-29T21:46:03.808Z,79.86
2023-03-29T21:48:33.198Z,79.90
2023-03-29T21:51:01.753Z,79.86
2023-03-29T21:53:30.529Z,79.98
2023-03-29T21:55:59.130Z,80.07
2023-03-29T21:58:27.705Z,79.65
2023-03-29T22:00:57.142Z,79.80
2023-03-29T22:03:25.877Z,79.47
2023-03-29T22:06:03.082Z,79.95
2023-03-29T22:08:32.648Z,79.75
2023-03-29T22:11:08.955Z,79.67
2023-03-29T22:13:38.070Z,79.59
2023-03-29T22:16:07.828Z,79.06
2023-03-29T22:18:43.605Z,79.23
2023-03-29T22:21:31.160Z,78.96
2023-03-29T22:24:02.379Z,79.19
2023-03-29T22:26:33.563Z,79.64
2023-03-29T22:29:02.774Z,80.25
2023-03-29T22:31:33.257Z,80.19
2023-03-29T22:34:02.999Z,80.55
2023-03-29T22:36:33.149Z,80.47
2023-03-29T22:39:01.561Z,80.75
2023-03-29T22:41:30.181Z,80.94
2023-03-29T22:44:01.098Z,80.89
2023-03-29T22:46:29.747Z,81.05
2023-03-29T22:48:58.386Z,80.82
2023-03-29T22:51:27.293Z,80.95
2023-03-29T22:53:56.256Z,81.17
2023-03-29T22:56:24.849Z,81.44
2023-03-29T22:58:53.641Z,81.46
2023-03-29T23:01:22.192Z,81.20
2023-03-29T23:03:51.029Z,81.47
2023-03-29T23:06:19.055Z,81.70
2023-03-29T23:08:47.445Z,81.84
2023-03-29T23:11:15.943Z,81.17
2023-03-29T23:13:48.648Z,81.87
2023-03-29T23:16:17.476Z,81.80
2023-03-29T23:18:45.600Z,82.61
2023-03-29T23:21:15.266Z,83.02
2023-03-29T23:23:44.751Z,83.43
2023-03-29T23:26:13.462Z,83.58
2023-03-29T23:28:42.344Z,83.58
2023-03-29T23:31:14.148Z,83.71
2023-03-29T23:33:43.728Z,83.96
2023-03-29T23:36:18.882Z,83.75
2023-03-29T23:38:48.016Z,84.39
2023-03-29T23:41:17.742Z,84.03
2023-03-29T23:43:47.136Z,84.00
2023-03-29T23:46:18.850Z,84.21
2023-03-29T23:48:49.364Z,84.24
2023-03-29T23:51:22.904Z,84.38
2023-03-29T23:53:51.760Z,84.51
2023-03-29T23:56:21.766Z,84.39
2023-03-29T23:58:50.445Z,83.99
